createdAt,value
2019-01-21T00:00:27.024Z,6.70
2019-01-21T00:01:27.015Z,7.40
2019-01-21T00:02:27.020Z,6.40
2019-01-21T00:03:26.998Z,7.90
2019-01-21T00:04:26.980Z,7.40
2019-01-21T00:05:26.970Z,7.10
2019-01-21T00:06:26.960Z,6.90
2019-01-21T00:07:28.033Z,7.80
2019-01-21T00:08:26.943Z,7.60
2019-01-21T00:09:26.932Z,7.30
2019-01-21T00:10:26.917Z,7.10
2019-01-21T00:11:26.919Z,7.00
2019-01-21T00:12:26.922Z,7.20
2019-01-21T00:13:26.889Z,7.90
2019-01-21T00:14:26.876Z,8.30
2019-01-21T00:15:26.870Z,6.80
2019-01-21T00:16:26.862Z,7.40
2019-01-21T00:17:26.859Z,8.00
2019-01-21T00:18:26.833Z,8.10
2019-01-21T00:19:26.823Z,7.80
2019-01-21T00:20:26.827Z,7.30
2019-01-21T00:21:26.811Z,7.50
2019-01-21T00:22:26.819Z,6.50
2019-01-21T00:23:26.786Z,7.30
2019-01-21T00:24:26.774Z,7.50
2019-01-21T00:25:26.763Z,7.00
2019-01-21T00:26:26.755Z,7.90
2019-01-21T00:27:26.770Z,7.20
2019-01-21T00:28:26.733Z,8.00
2019-01-21T00:29:26.718Z,7.00
2019-01-21T00:30:26.705Z,7.40
2019-01-21T00:31:26.697Z,7.90
2019-01-21T00:32:26.691Z,7.00
2019-01-21T00:33:26.689Z,6.60
2019-01-21T00:34:26.662Z,7.70
2019-01-21T00:35:26.655Z,9.50
2019-01-21T00:36:26.644Z,6.80
2019-01-21T00:37:26.632Z,7.90
2019-01-21T00:38:26.632Z,7.60
2019-01-21T00:39:26.613Z,7.40
2019-01-21T00:40:26.605Z,8.10
2019-01-21T00:41:26.595Z,7.60
2019-01-21T00:42:26.580Z,7.30
2019-01-21T00:43:26.581Z,7.80
2019-01-21T00:44:26.558Z,8.00
2019-01-21T00:45:26.552Z,7.00
2019-01-21T00:46:26.539Z,7.70
2019-01-21T00:47:29.972Z,7.60
2019-01-21T00:48:26.530Z,7.80
2019-01-21T00:49:26.505Z,8.70
2019-01-21T00:50:26.494Z,7.50
2019-01-21T00:51:26.485Z,6.60
2019-01-21T00:52:26.474Z,7.80
2019-01-21T00:53:26.481Z,7.80
2019-01-21T00:54:26.453Z,6.70
2019-01-21T00:55:26.448Z,8.20
2019-01-21T00:56:26.433Z,8.20
2019-01-21T00:57:26.421Z,7.90
2019-01-21T00:58:26.431Z,7.60
2019-01-21T00:59:26.399Z,8.00
2019-01-21T01:00:26.393Z,7.60
2019-01-21T01:01:26.381Z,8.00
2019-01-21T01:02:26.371Z,8.10
2019-01-21T01:03:26.387Z,8.40
2019-01-21T01:04:26.351Z,8.20
2019-01-21T01:05:26.337Z,8.40
2019-01-21T01:06:26.325Z,8.50
2019-01-21T01:07:26.314Z,7.70
2019-01-21T01:08:26.322Z,8.30
2019-01-21T01:09:26.294Z,8.00
2019-01-21T01:10:26.283Z,8.60
2019-01-21T01:11:26.280Z,8.00
2019-01-21T01:12:26.263Z,8.20
2019-01-21T01:13:26.264Z,8.10
2019-01-21T01:14:26.249Z,7.80
2019-01-21T01:15:26.230Z,7.70
2019-01-21T01:16:26.226Z,8.20
2019-01-21T01:17:26.210Z,8.40
2019-01-21T01:18:26.213Z,7.80
2019-01-21T01:19:26.191Z,8.60
2019-01-21T01:20:26.184Z,7.90
2019-01-21T01:21:26.169Z,8.40
2019-01-21T01:22:26.157Z,8.10
2019-01-21T01:23:26.163Z,9.10
2019-01-21T01:24:26.139Z,7.90
2019-01-21T01:25:26.128Z,7.60
2019-01-21T01:26:26.172Z,7.70
2019-01-21T01:27:26.110Z,8.60
2019-01-21T01:28:26.110Z,7.80
2019-01-21T01:29:26.087Z,7.80
2019-01-21T01:30:26.075Z,8.10
2019-01-21T01:31:26.070Z,7.60
2019-01-21T01:32:26.061Z,8.20
2019-01-21T01:33:26.059Z,8.80
2019-01-21T01:34:26.036Z,8.60
2019-01-21T01:35:26.025Z,8.50
2019-01-21T01:36:26.013Z,8.00
2019-01-21T01:37:26.006Z,8.90
2019-01-21T01:38:26.006Z,8.10
2019-01-21T01:39:25.982Z,8.90
2019-01-21T01:40:25.969Z,8.30
2019-01-21T01:41:25.958Z,7.10
2019-01-21T01:42:25.953Z,7.80
2019-01-21T01:43:25.949Z,8.30
2019-01-21T01:44:25.930Z,7.00
2019-01-21T01:45:25.919Z,8.00
2019-01-21T01:46:25.908Z,10.10
2019-01-21T01:47:25.896Z,7.90
2019-01-21T01:48:25.915Z,8.90
2019-01-21T01:49:25.892Z,8.40
2019-01-21T01:50:25.865Z,9.60
2019-01-21T01:51:25.857Z,8.30
2019-01-21T01:52:25.846Z,8.70
2019-01-21T01:53:25.833Z,8.80
2019-01-21T01:54:25.846Z,8.50
2019-01-21T01:55:25.814Z,8.50
2019-01-21T01:56:25.805Z,8.90
2019-01-21T01:57:25.797Z,8.50
2019-01-21T01:58:25.783Z,8.20
2019-01-21T01:59:25.785Z,7.70
2019-01-21T02:00:25.761Z,8.00
2019-01-21T02:01:25.752Z,9.50
2019-01-21T02:02:25.741Z,8.30
2019-01-21T02:03:25.737Z,7.30
2019-01-21T02:04:25.732Z,7.90
2019-01-21T02:05:25.712Z,7.10
2019-01-21T02:06:25.699Z,8.40
2019-01-21T02:07:25.689Z,9.00
2019-01-21T02:08:25.678Z,10.10
2019-01-21T02:09:25.679Z,8.20
2019-01-21T02:10:25.657Z,8.60
2019-01-21T02:11:25.646Z,9.60
2019-01-21T02:12:25.637Z,8.40
2019-01-21T02:13:25.631Z,9.10
2019-01-21T02:14:25.630Z,8.60
2019-01-21T02:15:25.603Z,9.00
2019-01-21T02:16:25.595Z,8.50
2019-01-21T02:17:25.588Z,7.70
2019-01-21T02:18:25.575Z,9.30
2019-01-21T02:19:25.576Z,9.50
2019-01-21T02:20:25.554Z,8.50
2019-01-21T02:21:25.543Z,10.10
2019-01-21T02:22:25.532Z,7.60
2019-01-21T02:23:25.527Z,9.10
2019-01-21T02:24:25.524Z,8.90
2019-01-21T02:25:25.503Z,9.20
2019-01-21T02:26:25.489Z,8.30
2019-01-21T02:27:32.056Z,8.70
2019-01-21T02:28:25.469Z,9.20
2019-01-21T02:29:25.475Z,8.80
2019-01-21T02:30:25.450Z,7.50
2019-01-21T02:31:25.453Z,8.80
2019-01-21T02:32:25.430Z,10.00
2019-01-21T02:33:25.418Z,8.30
2019-01-21T02:34:25.419Z,8.90
2019-01-21T02:35:25.397Z,8.70
2019-01-21T02:36:25.389Z,9.80
2019-01-21T02:37:25.378Z,9.50
2019-01-21T02:38:25.364Z,8.40
2019-01-21T02:39:25.371Z,9.10
2019-01-21T02:40:25.344Z,9.40
2019-01-21T02:41:25.334Z,8.60
2019-01-21T02:42:25.320Z,9.30
2019-01-21T02:43:25.316Z,9.10
2019-01-21T02:44:25.321Z,8.80
2019-01-21T02:45:25.293Z,9.30
2019-01-21T02:46:25.279Z,8.70
2019-01-21T02:47:25.268Z,8.70
2019-01-21T02:48:25.278Z,9.00
2019-01-21T02:49:25.261Z,9.40
2019-01-21T02:50:25.237Z,9.40
2019-01-21T02:51:25.227Z,8.90
2019-01-21T02:52:25.217Z,9.50
2019-01-21T02:53:25.222Z,9.60
2019-01-21T02:54:25.195Z,8.60
2019-01-21T02:55:25.188Z,8.70
2019-01-21T02:56:25.173Z,9.00
2019-01-21T02:57:25.165Z,9.50
2019-01-21T02:58:25.214Z,10.00
2019-01-21T02:59:25.145Z,9.60
2019-01-21T03:00:25.142Z,9.40
2019-01-21T03:01:25.140Z,8.50
2019-01-21T03:02:25.117Z,9.60
2019-01-21T03:03:25.109Z,8.70
2019-01-21T03:04:25.107Z,9.90
2019-01-21T03:05:25.085Z,8.60
2019-01-21T03:06:25.080Z,9.70
2019-01-21T03:07:25.062Z,9.10
2019-01-21T03:08:25.048Z,9.00
2019-01-21T03:09:25.052Z,8.80
2019-01-21T03:10:25.029Z,10.30
2019-01-21T03:11:25.018Z,9.10
2019-01-21T03:12:25.015Z,8.50
2019-01-21T03:13:24.997Z,8.40
2019-01-21T03:14:25.002Z,10.00
2019-01-21T03:15:24.975Z,8.40
2019-01-21T03:16:24.966Z,7.90
2019-01-21T03:17:24.956Z,7.40
2019-01-21T03:18:24.953Z,10.30
2019-01-21T03:19:24.951Z,9.20
2019-01-21T03:20:24.924Z,8.10
2019-01-21T03:21:24.914Z,9.10
2019-01-21T03:22:24.903Z,8.70
2019-01-21T03:23:24.893Z,8.30
2019-01-21T03:24:24.897Z,9.60
2019-01-21T03:25:24.873Z,9.50
2019-01-21T03:26:24.868Z,8.90
2019-01-21T03:27:24.853Z,8.60
2019-01-21T03:28:24.845Z,9.30
2019-01-21T03:29:24.850Z,8.60
2019-01-21T03:30:24.825Z,9.60
2019-01-21T03:31:24.819Z,8.60
2019-01-21T03:32:24.817Z,9.20
2019-01-21T03:33:26.764Z,8.20
2019-01-21T03:34:24.796Z,8.70
2019-01-21T03:35:24.769Z,7.70
2019-01-21T03:36:24.772Z,7.90
2019-01-21T03:37:24.752Z,8.00
2019-01-21T03:38:24.748Z,8.80
2019-01-21T03:39:24.755Z,8.70
2019-01-21T03:40:24.716Z,9.40
2019-01-21T03:41:24.706Z,8.40
2019-01-21T03:42:24.696Z,9.20
2019-01-21T03:43:24.684Z,9.50
2019-01-21T03:44:24.712Z,9.50
2019-01-21T03:45:24.667Z,8.40
2019-01-21T03:46:24.654Z,10.10
2019-01-21T03:47:24.647Z,8.30
2019-01-21T03:48:24.637Z,9.70
2019-01-21T03:49:24.639Z,9.00
2019-01-21T03:50:24.614Z,8.70
2019-01-21T03:51:34.065Z,8.80
2019-01-21T03:52:24.589Z,9.10
2019-01-21T03:53:24.581Z,8.70
2019-01-21T03:54:24.580Z,9.00
2019-01-21T03:55:24.558Z,9.90
2019-01-21T03:56:24.547Z,9.10
2019-01-21T03:57:24.554Z,9.20
2019-01-21T03:58:24.526Z,9.00
2019-01-21T03:59:24.554Z,9.00
2019-01-21T04:00:24.509Z,8.90
2019-01-21T04:01:24.497Z,8.60
2019-01-21T04:02:24.484Z,8.60
2019-01-21T04:03:24.474Z,9.40
2019-01-21T04:04:24.476Z,9.20
2019-01-21T04:05:24.453Z,8.60
2019-01-21T04:06:24.445Z,10.90
2019-01-21T04:07:24.432Z,9.80
2019-01-21T04:08:24.423Z,8.30
2019-01-21T04:09:24.425Z,10.10
2019-01-21T04:10:24.406Z,8.50
2019-01-21T04:11:24.391Z,9.00
2019-01-21T04:12:24.380Z,8.90
2019-01-21T04:13:24.370Z,9.30
2019-01-21T04:14:24.377Z,8.50
2019-01-21T04:15:24.349Z,8.50
2019-01-21T04:16:24.340Z,9.60
2019-01-21T04:17:24.331Z,8.70
2019-01-21T04:18:24.794Z,8.20
2019-01-21T04:19:24.320Z,9.00
2019-01-21T04:20:24.297Z,8.00
2019-01-21T04:21:24.288Z,9.20
2019-01-21T04:22:24.278Z,7.90
2019-01-21T04:23:24.264Z,8.10
2019-01-21T04:24:24.267Z,7.00
2019-01-21T04:25:24.243Z,8.10
2019-01-21T04:26:24.243Z,7.70
2019-01-21T04:27:24.223Z,8.20
2019-01-21T04:28:24.213Z,8.80
2019-01-21T04:29:24.215Z,8.00
2019-01-21T04:30:24.191Z,7.90
2019-01-21T04:31:26.240Z,8.00
2019-01-21T04:32:24.174Z,7.10
2019-01-21T04:33:24.160Z,7.80
2019-01-21T04:34:24.169Z,7.20
2019-01-21T04:35:24.138Z,8.70
2019-01-21T04:36:24.129Z,7.90
2019-01-21T04:37:24.118Z,7.30
2019-01-21T04:38:24.107Z,7.20
2019-01-21T04:39:24.110Z,8.00
2019-01-21T04:40:24.088Z,8.20
2019-01-21T04:41:24.076Z,7.70
2019-01-21T04:42:24.067Z,8.20
2019-01-21T04:43:24.057Z,7.80
2019-01-21T04:44:24.058Z,9.20
2019-01-21T04:45:24.037Z,9.30
2019-01-21T04:46:24.025Z,8.30
2019-01-21T04:47:24.013Z,8.40
2019-01-21T04:48:24.008Z,9.00
2019-01-21T04:49:24.027Z,7.60
2019-01-21T04:50:23.982Z,8.90
2019-01-21T04:51:23.972Z,10.00
2019-01-21T04:52:23.964Z,10.60
2019-01-21T04:53:23.952Z,9.80
2019-01-21T04:54:23.953Z,10.00
2019-01-21T04:55:23.931Z,10.10
2019-01-21T04:56:23.921Z,8.60
2019-01-21T04:57:23.913Z,9.80
2019-01-21T04:58:23.898Z,8.60
2019-01-21T04:59:23.901Z,9.10
2019-01-21T05:00:23.885Z,8.00
2019-01-21T05:01:23.870Z,7.80
2019-01-21T05:02:23.858Z,9.40
2019-01-21T05:03:23.851Z,9.50
2019-01-21T05:04:23.878Z,8.40
2019-01-21T05:05:23.824Z,8.70
2019-01-21T05:06:23.820Z,8.80
2019-01-21T05:07:23.804Z,7.50
2019-01-21T05:08:23.793Z,8.70
2019-01-21T05:09:25.526Z,7.20
2019-01-21T05:10:23.795Z,7.80
2019-01-21T05:11:23.762Z,8.20
2019-01-21T05:12:23.756Z,8.20
2019-01-21T05:13:23.741Z,7.20
2019-01-21T05:14:23.732Z,7.70
2019-01-21T05:15:23.732Z,9.20
2019-01-21T05:16:23.711Z,8.50
2019-01-21T05:17:23.699Z,8.40
2019-01-21T05:18:23.691Z,8.80
2019-01-21T05:19:23.677Z,7.40
2019-01-21T05:20:23.691Z,7.30
2019-01-21T05:21:23.663Z,7.20
2019-01-21T05:22:23.650Z,7.80
2019-01-21T05:23:23.638Z,8.70
2019-01-21T05:24:23.631Z,7.80
2019-01-21T05:25:23.630Z,7.90
2019-01-21T05:26:23.608Z,8.10
2019-01-21T05:27:23.597Z,7.20
2019-01-21T05:28:23.585Z,8.70
2019-01-21T05:29:23.582Z,8.80
2019-01-21T05:30:23.577Z,8.20
2019-01-21T05:31:23.557Z,9.20
2019-01-21T05:32:23.546Z,9.00
2019-01-21T05:33:23.535Z,8.90
2019-01-21T05:34:23.532Z,8.00
2019-01-21T05:35:23.524Z,9.90
2019-01-21T05:36:23.517Z,9.10
2019-01-21T05:37:23.493Z,9.10
2019-01-21T05:38:23.483Z,9.50
2019-01-21T05:39:23.476Z,8.70
2019-01-21T05:40:23.473Z,7.80
2019-01-21T05:41:23.450Z,8.50
2019-01-21T05:42:23.440Z,11.00
2019-01-21T05:43:23.431Z,7.80
2019-01-21T05:44:23.420Z,9.70
2019-01-21T05:45:23.420Z,9.30
2019-01-21T05:46:23.400Z,9.00
2019-01-21T05:47:23.389Z,8.50
2019-01-21T05:48:23.384Z,9.60
2019-01-21T05:49:23.366Z,9.90
2019-01-21T05:50:23.369Z,8.80
2019-01-21T05:51:23.343Z,8.70
2019-01-21T05:52:23.340Z,9.50
2019-01-21T05:53:23.323Z,7.90
2019-01-21T05:54:23.322Z,7.70
2019-01-21T05:55:23.321Z,9.00
2019-01-21T05:56:23.293Z,8.60
2019-01-21T05:57:23.281Z,8.40
2019-01-21T05:58:23.271Z,9.10
2019-01-21T05:59:23.261Z,8.10
2019-01-21T06:00:23.264Z,9.10
2019-01-21T06:01:23.243Z,7.40
2019-01-21T06:02:23.235Z,9.70
2019-01-21T06:03:23.218Z,8.20
2019-01-21T06:04:23.207Z,8.40
2019-01-21T06:05:23.212Z,8.20
2019-01-21T06:06:23.190Z,9.00
2019-01-21T06:07:23.177Z,7.90
2019-01-21T06:08:23.166Z,8.70
2019-01-21T06:09:23.156Z,8.50
2019-01-21T06:10:23.157Z,9.00
2019-01-21T06:11:23.137Z,8.50
2019-01-21T06:12:23.125Z,9.00
2019-01-21T06:13:23.121Z,9.60
2019-01-21T06:14:23.127Z,9.30
2019-01-21T06:15:23.108Z,9.70
2019-01-21T06:16:23.083Z,8.70
2019-01-21T06:17:23.072Z,8.90
2019-01-21T06:18:23.063Z,10.00
2019-01-21T06:19:23.053Z,8.40
2019-01-21T06:20:23.057Z,8.20
2019-01-21T06:21:23.033Z,8.90
2019-01-21T06:22:23.028Z,9.00
2019-01-21T06:23:23.009Z,8.30
2019-01-21T06:24:23.002Z,8.50
2019-01-21T06:25:23.019Z,10.20
2019-01-21T06:26:22.979Z,9.10
2019-01-21T06:27:22.967Z,9.00
2019-01-21T06:28:22.957Z,10.10
2019-01-21T06:29:22.947Z,10.20
2019-01-21T06:30:22.949Z,8.80
2019-01-21T06:31:22.929Z,8.90
2019-01-21T06:32:22.914Z,8.40
2019-01-21T06:33:22.906Z,8.90
2019-01-21T06:34:22.902Z,8.20
2019-01-21T06:35:22.902Z,10.40
2019-01-21T06:36:22.879Z,8.70
2019-01-21T06:37:22.905Z,9.40
2019-01-21T06:38:22.857Z,9.30
2019-01-21T06:39:22.841Z,8.10
2019-01-21T06:40:22.844Z,8.30
2019-01-21T06:41:22.826Z,8.40
2019-01-21T06:42:22.816Z,9.40
2019-01-21T06:43:22.800Z,9.30
2019-01-21T06:44:22.794Z,9.10
2019-01-21T06:45:22.798Z,9.90
2019-01-21T06:46:22.771Z,9.50
2019-01-21T06:47:22.759Z,8.20
2019-01-21T06:48:22.750Z,9.90
2019-01-21T06:49:22.737Z,8.90
2019-01-21T06:50:22.748Z,9.40
2019-01-21T06:51:22.717Z,9.70
2019-01-21T06:52:22.705Z,9.30
2019-01-21T06:53:22.696Z,8.40
2019-01-21T06:54:22.686Z,9.70
2019-01-21T06:55:22.688Z,9.60
2019-01-21T06:56:22.668Z,9.30
2019-01-21T06:57:22.654Z,10.70
2019-01-21T06:58:22.643Z,10.30
2019-01-21T06:59:22.634Z,9.50
2019-01-21T07:00:22.639Z,10.20
2019-01-21T07:01:22.612Z,11.20
2019-01-21T07:02:22.603Z,10.30
2019-01-21T07:03:22.637Z,10.90
2019-01-21T07:04:22.584Z,11.20
2019-01-21T07:05:22.585Z,10.30
2019-01-21T07:06:22.563Z,11.50
2019-01-21T07:07:22.550Z,10.30
2019-01-21T07:08:22.539Z,9.70
2019-01-21T07:09:22.530Z,11.50
2019-01-21T07:10:22.532Z,10.90
2019-01-21T07:11:22.513Z,10.50
2019-01-21T07:12:22.497Z,10.20
2019-01-21T07:13:22.487Z,9.90
2019-01-21T07:14:22.475Z,9.70
2019-01-21T07:15:22.498Z,9.90
2019-01-21T07:16:22.458Z,10.10
2019-01-21T07:17:22.446Z,9.20
2019-01-21T07:18:25.965Z,10.60
2019-01-21T07:19:22.426Z,10.40
2019-01-21T07:20:22.413Z,8.80
2019-01-21T07:21:22.417Z,10.10
2019-01-21T07:22:22.394Z,10.80
2019-01-21T07:23:22.383Z,9.80
2019-01-21T07:24:22.373Z,9.10
2019-01-21T07:25:22.361Z,10.30
2019-01-21T07:26:22.364Z,10.20
2019-01-21T07:27:22.344Z,10.60
2019-01-21T07:28:22.330Z,9.60
2019-01-21T07:29:22.319Z,9.80
2019-01-21T07:30:22.310Z,10.00
2019-01-21T07:31:22.311Z,11.20
2019-01-21T07:32:22.287Z,11.50
2019-01-21T07:33:22.282Z,10.60
2019-01-21T07:34:22.312Z,11.50
2019-01-21T07:35:22.261Z,9.40
2019-01-21T07:36:22.265Z,9.30
2019-01-21T07:37:22.237Z,10.10
2019-01-21T07:38:22.227Z,10.90
2019-01-21T07:39:22.217Z,10.00
2019-01-21T07:40:22.216Z,8.50
2019-01-21T07:41:22.211Z,11.00
2019-01-21T07:42:22.184Z,10.40
2019-01-21T07:43:22.174Z,11.90
2019-01-21T07:44:22.164Z,10.20
2019-01-21T07:45:22.155Z,10.70
2019-01-21T07:46:22.156Z,10.80
2019-01-21T07:47:22.131Z,8.70
2019-01-21T07:48:22.121Z,9.80
2019-01-21T07:49:22.113Z,10.20
2019-01-21T07:50:22.101Z,10.10
2019-01-21T07:51:22.108Z,11.60
2019-01-21T07:52:22.081Z,10.80
2019-01-21T07:53:22.069Z,9.80
2019-01-21T07:54:22.058Z,10.80
2019-01-21T07:55:22.053Z,10.70
2019-01-21T07:56:22.050Z,12.40
2019-01-21T07:57:22.028Z,10.40
2019-01-21T07:58:22.020Z,10.40
2019-01-21T07:59:22.009Z,11.30
2019-01-21T08:00:21.998Z,10.50
2019-01-21T08:01:22.027Z,11.50
2019-01-21T08:02:21.975Z,10.70
2019-01-21T08:03:21.965Z,11.80
2019-01-21T08:04:21.971Z,10.60
2019-01-21T08:05:21.947Z,10.60
2019-01-21T08:06:21.945Z,10.90
2019-01-21T08:07:21.922Z,10.00
2019-01-21T08:08:21.916Z,12.20
2019-01-21T08:09:21.908Z,11.00
2019-01-21T08:10:21.892Z,10.90
2019-01-21T08:11:21.894Z,9.70
2019-01-21T08:12:21.870Z,9.90
2019-01-21T08:13:21.860Z,9.50
2019-01-21T08:14:21.850Z,9.30
2019-01-21T08:15:26.159Z,10.50
2019-01-21T08:16:21.842Z,9.30
2019-01-21T08:17:21.819Z,10.50
2019-01-21T08:18:21.809Z,10.40
2019-01-21T08:19:24.472Z,9.50
2019-01-21T08:20:21.789Z,10.60
2019-01-21T08:21:21.793Z,11.40
2019-01-21T08:22:21.773Z,10.70
2019-01-21T08:23:21.761Z,11.10
2019-01-21T08:24:21.773Z,10.10
2019-01-21T08:25:21.736Z,10.60
2019-01-21T08:26:21.736Z,10.60
2019-01-21T08:27:21.712Z,10.30
2019-01-21T08:28:21.702Z,10.00
2019-01-21T08:29:21.693Z,11.60
2019-01-21T08:30:21.720Z,11.50
2019-01-21T08:31:21.684Z,10.60
2019-01-21T08:32:21.663Z,11.30
2019-01-21T08:33:21.650Z,11.00
2019-01-21T08:34:21.639Z,9.50
2019-01-21T08:35:21.630Z,9.70
2019-01-21T08:36:21.638Z,10.10
2019-01-21T08:37:21.607Z,10.80
2019-01-21T08:38:21.604Z,11.00
2019-01-21T08:39:21.590Z,10.10
2019-01-21T08:40:21.581Z,11.50
2019-01-21T08:41:21.578Z,11.50
2019-01-21T08:42:21.561Z,11.40
2019-01-21T08:43:21.605Z,11.80
2019-01-21T08:44:21.542Z,11.10
2019-01-21T08:45:21.526Z,11.70
2019-01-21T08:46:21.572Z,10.60
2019-01-21T08:47:21.505Z,11.30
2019-01-21T08:48:21.498Z,11.10
2019-01-21T08:49:21.484Z,11.80
2019-01-21T08:50:21.471Z,10.80
2019-01-21T08:51:21.475Z,11.20
2019-01-21T08:52:21.461Z,11.10
2019-01-21T08:53:21.554Z,11.40
2019-01-21T08:54:21.434Z,9.90
2019-01-21T08:55:21.425Z,10.90
2019-01-21T08:56:21.423Z,10.60
2019-01-21T08:57:21.404Z,10.80
2019-01-21T08:58:21.388Z,9.80
2019-01-21T08:59:21.379Z,9.90
2019-01-21T09:00:21.367Z,10.10
2019-01-21T09:01:21.370Z,10.60
2019-01-21T09:02:21.345Z,11.00
2019-01-21T09:03:21.336Z,11.70
2019-01-21T09:04:21.325Z,10.30
2019-01-21T09:05:21.314Z,10.60
2019-01-21T09:06:21.327Z,10.30
2019-01-21T09:07:21.298Z,9.40
2019-01-21T09:08:21.283Z,10.70
2019-01-21T09:09:21.272Z,10.80
2019-01-21T09:10:21.264Z,10.20
2019-01-21T09:11:21.265Z,10.60
2019-01-21T09:12:21.242Z,10.30
2019-01-21T09:13:21.239Z,10.40
2019-01-21T09:14:21.220Z,10.90
2019-01-21T09:15:21.209Z,8.80
2019-01-21T09:16:21.226Z,9.10
2019-01-21T09:17:21.190Z,11.00
2019-01-21T09:18:21.179Z,10.00
2019-01-21T09:19:21.204Z,10.70
2019-01-21T09:20:21.173Z,9.30
2019-01-21T09:21:21.147Z,9.80
2019-01-21T09:22:21.150Z,9.70
2019-01-21T09:23:21.126Z,9.70
2019-01-21T09:24:21.134Z,9.60
2019-01-21T09:25:21.120Z,10.00
2019-01-21T09:26:21.096Z,10.70
2019-01-21T09:27:21.098Z,11.00
2019-01-21T09:28:21.075Z,10.10
2019-01-21T09:29:21.065Z,10.00
2019-01-21T09:30:21.072Z,10.20
2019-01-21T09:31:21.065Z,11.10
2019-01-21T09:32:21.049Z,10.00
2019-01-21T09:33:21.049Z,9.90
2019-01-21T09:34:21.012Z,10.30
2019-01-21T09:35:21.009Z,10.30
2019-01-21T09:36:20.996Z,10.00
2019-01-21T09:37:21.005Z,10.80
2019-01-21T09:38:20.975Z,9.50
2019-01-21T09:39:20.960Z,10.30
2019-01-21T09:40:20.951Z,10.20
2019-01-21T09:41:20.941Z,10.60
2019-01-21T09:42:20.947Z,10.90
2019-01-21T09:43:20.919Z,12.00
2019-01-21T09:44:20.917Z,9.70
2019-01-21T09:45:20.901Z,9.60
2019-01-21T09:46:20.889Z,9.70
2019-01-21T09:47:20.896Z,10.40
2019-01-21T09:48:20.880Z,10.30
2019-01-21T09:49:20.858Z,11.00
2019-01-21T09:50:20.847Z,10.90
2019-01-21T09:51:20.838Z,11.50
2019-01-21T09:52:29.645Z,10.90
2019-01-21T09:53:20.835Z,10.30
2019-01-21T09:54:20.822Z,11.00
2019-01-21T09:55:20.798Z,11.70
2019-01-21T09:56:20.799Z,10.90
2019-01-21T09:57:20.794Z,11.10
2019-01-21T09:58:20.768Z,10.90
2019-01-21T09:59:20.773Z,9.90
2019-01-21T10:00:20.749Z,10.90
2019-01-21T10:01:20.734Z,9.70
2019-01-21T10:02:20.738Z,9.80
2019-01-21T10:03:20.717Z,10.30
2019-01-21T10:04:20.728Z,11.60
2019-01-21T10:05:20.728Z,11.10
2019-01-21T10:06:20.682Z,9.00
2019-01-21T10:07:20.683Z,10.70
2019-01-21T10:08:20.661Z,11.60
2019-01-21T10:09:20.656Z,11.80
2019-01-21T10:10:20.643Z,9.90
2019-01-21T10:11:20.632Z,11.60
2019-01-21T10:12:20.634Z,9.90
2019-01-21T10:13:20.611Z,10.30
2019-01-21T10:14:20.599Z,11.10
2019-01-21T10:15:20.591Z,10.10
2019-01-21T10:16:20.580Z,11.50
2019-01-21T10:17:20.607Z,11.30
2019-01-21T10:18:20.561Z,11.80
2019-01-21T10:19:20.549Z,10.60
2019-01-21T10:20:20.537Z,11.00
2019-01-21T10:21:20.555Z,11.40
2019-01-21T10:22:20.529Z,11.80
2019-01-21T10:23:20.506Z,11.10
2019-01-21T10:24:20.495Z,11.90
2019-01-21T10:25:20.482Z,11.80
2019-01-21T10:26:20.473Z,10.60
2019-01-21T10:27:20.477Z,10.60
2019-01-21T10:28:20.456Z,10.20
2019-01-21T10:29:20.443Z,10.30
2019-01-21T10:30:20.435Z,11.80
2019-01-21T10:31:20.496Z,10.30
2019-01-21T10:32:20.424Z,11.30
2019-01-21T10:33:20.400Z,10.70
2019-01-21T10:34:20.392Z,11.30
2019-01-21T10:35:20.382Z,11.50
2019-01-21T10:36:20.375Z,10.80
2019-01-21T10:37:21.637Z,11.30
2019-01-21T10:38:20.355Z,10.80
2019-01-21T10:39:20.339Z,11.00
2019-01-21T10:40:20.329Z,11.70
2019-01-21T10:41:20.317Z,10.90
2019-01-21T10:42:20.322Z,11.90
2019-01-21T10:43:20.297Z,11.90
2019-01-21T10:44:20.290Z,11.80
2019-01-21T10:45:20.278Z,12.20
2019-01-21T10:46:20.268Z,11.30
2019-01-21T10:47:20.267Z,11.60
2019-01-21T10:48:20.245Z,12.10
2019-01-21T10:49:20.232Z,13.40
2019-01-21T10:50:20.221Z,11.20
2019-01-21T10:51:20.212Z,12.10
2019-01-21T10:52:20.250Z,12.80
2019-01-21T10:53:20.189Z,12.40
2019-01-21T10:54:20.182Z,11.70
2019-01-21T10:55:20.168Z,12.60
2019-01-21T10:56:20.161Z,13.50
2019-01-21T10:57:20.149Z,13.30
2019-01-21T10:58:20.147Z,12.20
2019-01-21T10:59:20.131Z,12.00
2019-01-21T11:00:20.116Z,12.30
2019-01-21T11:01:20.101Z,12.10
2019-01-21T11:02:20.092Z,11.70
2019-01-21T11:03:20.093Z,12.90
2019-01-21T11:04:20.077Z,11.70
2019-01-21T11:05:20.061Z,12.50
2019-01-21T11:06:20.052Z,13.10
2019-01-21T11:07:20.038Z,12.80
2019-01-21T11:08:20.041Z,13.00
2019-01-21T11:09:20.019Z,12.50
2019-01-21T11:10:20.005Z,12.20
2019-01-21T11:11:19.999Z,13.60
2019-01-21T11:12:19.989Z,13.20
2019-01-21T11:13:20.006Z,13.50
2019-01-21T11:14:19.969Z,13.10
2019-01-21T11:15:19.959Z,13.30
2019-01-21T11:16:19.947Z,14.00
2019-01-21T11:17:19.932Z,13.70
2019-01-21T11:18:19.937Z,14.20
2019-01-21T11:19:22.083Z,12.90
2019-01-21T11:20:19.900Z,13.20
2019-01-21T11:21:19.933Z,13.10
2019-01-21T11:22:19.883Z,12.30
2019-01-21T11:23:19.870Z,12.30
2019-01-21T11:24:19.891Z,14.50
2019-01-21T11:25:19.876Z,13.00
2019-01-21T11:26:19.839Z,13.10
2019-01-21T11:27:19.826Z,11.70
2019-01-21T11:28:19.815Z,12.50
2019-01-21T11:29:19.831Z,13.20
2019-01-21T11:30:19.796Z,13.00
2019-01-21T11:31:23.586Z,11.90
2019-01-21T11:32:19.772Z,13.40
2019-01-21T11:33:19.772Z,12.60
2019-01-21T11:34:19.786Z,13.00
2019-01-21T11:35:19.752Z,11.90
2019-01-21T11:36:19.745Z,12.60
2019-01-21T11:37:19.727Z,13.90
2019-01-21T11:38:19.715Z,11.80
2019-01-21T11:39:19.740Z,13.10
2019-01-21T11:40:19.693Z,11.80
2019-01-21T11:41:19.689Z,12.70
2019-01-21T11:42:19.689Z,13.30
2019-01-21T11:43:19.667Z,11.60
2019-01-21T11:44:19.653Z,14.60
2019-01-21T11:45:19.651Z,11.60
2019-01-21T11:46:19.630Z,12.90
2019-01-21T11:47:19.621Z,12.30
2019-01-21T11:48:19.617Z,12.60
2019-01-21T11:49:19.601Z,12.20
2019-01-21T11:50:19.604Z,12.90
2019-01-21T11:51:19.577Z,13.30
2019-01-21T11:52:19.565Z,13.10
2019-01-21T11:53:19.558Z,13.00
2019-01-21T11:54:19.542Z,13.30
2019-01-21T11:55:19.543Z,13.10
2019-01-21T11:56:19.558Z,12.50
2019-01-21T11:57:19.513Z,11.80
2019-01-21T11:58:19.503Z,14.30
2019-01-21T11:59:19.496Z,12.00
2019-01-21T12:00:19.507Z,11.60
2019-01-21T12:01:19.475Z,13.80
2019-01-21T12:02:19.464Z,12.80
2019-01-21T12:03:23.483Z,12.70
2019-01-21T12:04:19.440Z,12.40
2019-01-21T12:05:19.442Z,12.80
2019-01-21T12:06:19.420Z,12.00
2019-01-21T12:07:19.412Z,12.80
2019-01-21T12:08:19.398Z,11.90
2019-01-21T12:09:19.392Z,12.90
2019-01-21T12:10:19.388Z,12.80
2019-01-21T12:11:19.368Z,14.20
2019-01-21T12:12:19.354Z,12.20
2019-01-21T12:13:19.352Z,12.00
2019-01-21T12:14:19.332Z,12.70
2019-01-21T12:15:19.337Z,13.00
2019-01-21T12:16:19.310Z,12.00
2019-01-21T12:17:19.300Z,13.20
2019-01-21T12:18:19.291Z,12.40
2019-01-21T12:19:19.282Z,13.60
2019-01-21T12:20:19.314Z,11.20
2019-01-21T12:21:19.257Z,12.70
2019-01-21T12:22:19.246Z,12.60
2019-01-21T12:23:19.237Z,12.60
2019-01-21T12:24:19.244Z,12.40
2019-01-21T12:25:19.231Z,12.90
2019-01-21T12:26:19.203Z,13.80
2019-01-21T12:27:19.195Z,12.40
2019-01-21T12:28:19.182Z,11.90
2019-01-21T12:29:19.174Z,12.00
2019-01-21T12:30:19.222Z,13.20
2019-01-21T12:31:19.154Z,12.40
2019-01-21T12:32:19.141Z,12.10
2019-01-21T12:33:19.125Z,10.80
2019-01-21T12:34:19.113Z,12.70
2019-01-21T12:35:19.108Z,12.70
2019-01-21T12:36:19.104Z,12.80
2019-01-21T12:37:19.081Z,12.40
2019-01-21T12:38:19.068Z,12.00
2019-01-21T12:39:19.060Z,12.10
2019-01-21T12:40:19.048Z,11.80
2019-01-21T12:41:21.682Z,12.50
2019-01-21T12:42:19.029Z,12.10
2019-01-21T12:43:19.020Z,12.50
2019-01-21T12:44:19.004Z,12.70
2019-01-21T12:45:18.994Z,12.30
2019-01-21T12:46:18.995Z,11.70
2019-01-21T12:47:18.974Z,12.30
2019-01-21T12:48:18.969Z,11.10
2019-01-21T12:49:18.955Z,12.30
2019-01-21T12:50:23.995Z,12.20
2019-01-21T12:51:19.943Z,12.20
2019-01-21T12:52:18.920Z,12.00
2019-01-21T12:53:18.928Z,12.20
2019-01-21T12:54:18.896Z,11.30
2019-01-21T12:55:18.886Z,11.50
2019-01-21T12:56:18.889Z,12.10
2019-01-21T12:57:18.890Z,11.60
2019-01-21T12:58:18.909Z,12.40
2019-01-21T12:59:18.844Z,12.50
2019-01-21T13:00:18.835Z,12.60
2019-01-21T13:01:18.853Z,12.00
2019-01-21T13:02:18.810Z,12.30
2019-01-21T13:03:18.804Z,12.00
2019-01-21T13:04:18.799Z,12.70
2019-01-21T13:05:18.787Z,12.80
2019-01-21T13:06:18.773Z,12.40